Time,TemperatureF,DewpointF,PressureIn,WindDirection,WindDirectionDegrees,WindSpeedMPH,WindSpeedGustMPH,Humidity,HourlyPrecipIn,Conditions,Clouds,dailyrainin,SoftwareType,DateUTC
2013-03-22 00:00:00,29.8,26.7,29.62,ENE,65,1.0,0.0,88,0.00,,,0.00,WeatherTracker,2013-03-22 04:00:00,
2013-03-22 00:05:00,29.8,26.1,29.62,NW,317,2.0,0.0,86,0.00,,,0.00,WeatherTracker,2013-03-22 04:05:00,
2013-03-22 00:10:00,29.9,25.1,29.62,ENE,74,0.0,0.0,82,0.00,,,0.00,WeatherTracker,2013-03-22 04:10:00,
2013-03-22 00:15:00,30.0,24.0,29.62,NW,316,0.0,0.0,78,0.00,,,0.00,WeatherTracker,2013-03-22 04:15:00,
2013-03-22 00:25:00,30.2,23.2,29.63,NW,325,2.0,0.0,75,0.00,,,0.00,WeatherTracker,2013-03-22 04:25:00,
2013-03-22 00:30:00,30.3,23.0,29.63,NE,37,2.0,0.0,74,0.00,,,0.00,WeatherTracker,2013-03-22 04:30:00,
2013-03-22 00:35:00,30.3,22.4,29.63,NNE,22,0.0,0.0,72,0.00,,,0.00,WeatherTracker,2013-03-22 04:35:00,
2013-03-22 00:45:00,30.3,21.4,29.62,NW,320,0.0,0.0,69,0.00,,,0.00,WeatherTracker,2013-03-22 04:45:00,
2013-03-22 00:50:00,30.2,20.9,29.62,NNW,344,1.0,0.0,68,0.00,,,0.00,WeatherTracker,2013-03-22 04:50:00,
2013-03-22 00:55:00,30.2,20.6,29.63,North,349,2.0,0.0,67,0.00,,,0.00,WeatherTracker,2013-03-22 04:55:00,
2013-03-22 01:05:00,30.3,19.6,29.63,NW,313,2.0,0.0,64,0.00,,,0.00,WeatherTracker,2013-03-22 05:05:00,
2013-03-22 01:10:00,30.4,19.7,29.63,North,5,3.0,0.0,64,0.00,,,0.00,WeatherTracker,2013-03-22 05:10:00,
2013-03-22 01:15:00,30.5,19.8,29.63,NE,43,2.0,0.0,64,0.00,,,0.00,WeatherTracker,2013-03-22 05:15:00,
2013-03-22 01:25:00,30.6,19.5,29.63,North,360,0.0,0.0,63,0.00,,,0.00,WeatherTracker,2013-03-22 05:25:00,
2013-03-22 01:30:00,30.6,19.1,29.63,NNW,348,2.0,0.0,62,0.00,,,0.00,WeatherTracker,2013-03-22 05:30:00,
2013-03-22 01:35:00,30.6,19.5,29.63,NNW,346,0.0,0.0,63,0.00,,,0.00,WeatherTracker,2013-03-22 05:35:00,
2013-03-22 01:40:00,30.6,19.1,29.63,NNE,20,5.0,0.0,62,0.00,,,0.00,WeatherTracker,2013-03-22 05:40:00,
2013-03-22 01:45:00,30.6,19.1,29.64,SW,215,3.0,0.0,62,0.00,,,0.00,WeatherTracker,2013-03-22 05:45:00,
2013-03-22 01:50:00,30.7,19.2,29.64,NNE,24,2.0,0.0,62,0.00,,,0.00,WeatherTracker,2013-03-22 05:50:00,
2013-03-22 01:55:00,30.6,19.5,29.63,WNW,301,1.0,0.0,63,0.00,,,0.00,WeatherTracker,2013-03-22 05:55:00,
2013-03-22 02:05:00,30.6,19.5,29.64,NE,38,3.0,0.0,63,0.00,,,0.00,WeatherTracker,2013-03-22 06:05:00,
2013-03-22 02:15:00,30.6,19.5,29.63,North,355,2.0,0.0,63,0.00,,,0.00,WeatherTracker,2013-03-22 06:15:00,
2013-03-22 02:25:00,30.6,19.9,29.63,NW,306,2.0,0.0,64,0.00,,,0.00,WeatherTracker,2013-03-22 06:25:00,
2013-03-22 02:30:00,30.6,19.9,29.63,North,349,3.0,0.0,64,0.00,,,0.00,WeatherTracker,2013-03-22 06:30:00,
2013-03-22 02:35:00,30.6,20.3,29.63,NE,46,3.0,0.0,65,0.00,,,0.00,WeatherTracker,2013-03-22 06:35:00,
2013-03-22 02:45:00,30.6,20.3,29.63,WNW,287,1.0,0.0,65,0.01,,,0.01,WeatherTracker,2013-03-22 06:45:00,
2013-03-22 02:50:00,30.5,20.5,29.63,WNW,294,2.0,0.0,66,0.01,,,0.01,WeatherTracker,2013-03-22 06:50:00,
2013-03-22 02:55:00,30.5,20.9,29.63,NW,317,1.0,0.0,67,0.01,,,0.01,WeatherTracker,2013-03-22 06:55:00,
2013-03-22 03:05:00,30.5,20.5,29.63,NNW,338,2.0,0.0,66,0.01,,,0.01,WeatherTracker,2013-03-22 07:05:00,
2013-03-22 03:15:00,30.4,20.8,29.63,NW,315,1.0,0.0,67,0.01,,,0.01,WeatherTracker,2013-03-22 07:15:00,
2013-03-22 03:20:00,30.4,20.4,29.63,North,11,7.0,0.0,66,0.01,,,0.01,WeatherTracker,2013-03-22 07:20:00,
2013-03-22 03:30:00,30.3,20.7,29.63,WNW,292,4.0,0.0,67,0.01,,,0.01,WeatherTracker,2013-03-22 07:30:00,
2013-03-22 03:35:00,30.4,20.8,29.63,NNE,20,0.0,0.0,67,0.01,,,0.01,WeatherTracker,2013-03-22 07:35:00,
2013-03-22 03:40:00,30.3,20.7,29.63,NNE,17,5.0,0.0,67,0.00,,,0.01,WeatherTracker,2013-03-22 07:40:00,
2013-03-22 03:45:00,30.3,20.7,29.62,NNW,344,2.0,0.0,67,0.00,,,0.01,WeatherTracker,2013-03-22 07:45:00,
2013-03-22 03:55:00,30.3,20.7,29.63,NNE,28,3.0,0.0,67,0.00,,,0.01,WeatherTracker,2013-03-22 07:55:00,
2013-03-22 04:05:00,30.3,20.7,29.62,NW,318,0.0,0.0,67,0.00,,,0.01,WeatherTracker,2013-03-22 08:05:00,
2013-03-22 04:10:00,30.2,20.6,29.62,NW,306,2.0,0.0,67,0.00,,,0.01,WeatherTracker,2013-03-22 08:10:00,
2013-03-22 04:20:00,30.1,20.5,29.62,NNW,336,4.0,0.0,67,0.00,,,0.01,WeatherTracker,2013-03-22 08:20:00,
2013-03-22 04:30:00,29.9,20.6,29.62,NE,35,1.0,0.0,68,0.00,,,0.01,WeatherTracker,2013-03-22 08:30:00,
2013-03-22 04:40:00,29.8,20.5,29.63,NNE,30,0.0,0.0,68,0.00,,,0.01,WeatherTracker,2013-03-22 08:40:00,
2013-03-22 04:50:00,29.6,20.7,29.63,NW,320,6.0,0.0,69,0.00,,,0.01,WeatherTracker,2013-03-22 08:50:00,
2013-03-22 04:55:00,29.6,20.7,29.62,NW,323,0.0,0.0,69,0.00,,,0.01,WeatherTracker,2013-03-22 08:55:00,
2013-03-22 05:05:00,29.3,20.4,29.63,NNW,340,0.0,0.0,69,0.00,,,0.01,WeatherTracker,2013-03-22 09:05:00,
2013-03-22 05:10:00,29.2,20.3,29.63,NE,38,0.0,0.0,69,0.00,,,0.01,WeatherTracker,2013-03-22 09:10:00,
2013-03-22 05:15:00,29.1,20.2,29.63,NW,321,1.0,0.0,69,0.00,,,0.01,WeatherTracker,2013-03-22 09:15:00,
2013-03-22 05:20:00,29.0,20.5,29.63,NNE,15,3.0,0.0,70,0.00,,,0.01,WeatherTracker,2013-03-22 09:20:00,
2013-03-22 05:30:00,28.8,20.3,29.63,North,350,3.0,0.0,70,0.00,,,0.01,WeatherTracker,2013-03-22 09:30:00,
2013-03-22 05:40:00,28.7,20.2,29.63,North,5,5.0,0.0,70,0.00,,,0.01,WeatherTracker,2013-03-22 09:40:00,
2013-03-22 05:45:00,28.7,19.8,29.63,NNE,29,4.0,0.0,69,0.00,,,0.01,WeatherTracker,2013-03-22 09:45:00,
2013-03-22 05:55:00,28.6,20.1,29.63,North,351,4.0,0.0,70,0.00,,,0.01,WeatherTracker,2013-03-22 09:55:00,
2013-03-22 06:05:00,28.6,20.1,29.64,North,355,2.0,0.0,70,0.00,,,0.01,WeatherTracker,2013-03-22 10:05:00,
2013-03-22 06:15:00,28.5,20.0,29.64,NW,312,1.0,0.0,70,0.00,,,0.01,WeatherTracker,2013-03-22 10:15:00,
2013-03-22 06:20:00,28.5,20.0,29.64,North,5,2.0,0.0,70,0.00,,,0.01,WeatherTracker,2013-03-22 10:20:00,
2013-03-22 06:30:00,28.4,20.2,29.64,East,100,1.0,0.0,71,0.00,,,0.01,WeatherTracker,2013-03-22 10:30:00,
2013-03-22 06:40:00,28.3,19.8,29.65,North,9,0.0,0.0,70,0.00,,,0.01,WeatherTracker,2013-03-22 10:40:00,
2013-03-22 06:45:00,28.3,20.1,29.65,North,10,0.0,0.0,71,0.00,,,0.01,WeatherTracker,2013-03-22 10:45:00,
2013-03-22 06:55:00,28.1,19.6,29.65,South,191,1.0,0.0,70,0.00,,,0.01,WeatherTracker,2013-03-22 10:55:00,
2013-03-22 07:00:00,28.0,19.2,29.65,NNW,339,1.0,0.0,69,0.00,,,0.01,WeatherTracker,2013-03-22 11:00:00,
2013-03-22 07:05:00,27.9,19.1,29.66,West,278,1.0,0.0,69,0.00,,,0.01,WeatherTracker,2013-03-22 11:05:00,
2013-03-22 07:10:00,27.8,19.0,29.66,NNW,336,1.0,0.0,69,0.00,,,0.01,WeatherTracker,2013-03-22 11:10:00,
2013-03-22 07:20:00,27.8,19.0,29.66,NNW,331,3.0,0.0,69,0.00,,,0.01,WeatherTracker,2013-03-22 11:20:00,
2013-03-22 07:30:00,27.9,18.7,29.67,North,11,2.0,0.0,68,0.00,,,0.01,WeatherTracker,2013-03-22 11:30:00,
2013-03-22 07:35:00,28.1,18.6,29.67,NW,326,3.0,0.0,67,0.00,,,0.01,WeatherTracker,2013-03-22 11:35:00,
2013-03-22 07:45:00,28.7,18.8,29.67,North,350,3.0,0.0,66,0.00,,,0.01,WeatherTracker,2013-03-22 11:45:00,
2013-03-22 07:50:00,28.8,18.5,29.67,NW,316,2.0,0.0,65,0.00,,,0.01,WeatherTracker,2013-03-22 11:50:00,
2013-03-22 07:55:00,29.0,18.4,29.67,WNW,297,0.0,0.0,64,0.00,,,0.01,WeatherTracker,2013-03-22 11:55:00,
2013-03-22 08:00:00,29.2,18.2,29.68,North,355,5.0,0.0,63,0.00,,,0.01,WeatherTracker,2013-03-22 12:00:00,
2013-03-22 08:05:00,29.4,18.0,29.68,NNW,329,1.0,0.0,62,0.00,,,0.01,WeatherTracker,2013-03-22 12:05:00,
2013-03-22 08:15:00,29.8,18.4,29.68,NNW,336,2.0,0.0,62,0.00,,,0.01,WeatherTracker,2013-03-22 12:15:00,
2013-03-22 08:20:00,30.0,18.2,29.68,NNW,333,4.0,0.0,61,0.00,,,0.01,WeatherTracker,2013-03-22 12:20:00,
2013-03-22 08:25:00,30.0,17.8,29.68,NW,321,3.0,0.0,60,0.00,,,0.01,WeatherTracker,2013-03-22 12:25:00,
2013-03-22 08:35:00,30.4,18.2,29.68,North,5,1.0,0.0,60,0.00,,,0.01,WeatherTracker,2013-03-22 12:35:00,
2013-03-22 08:40:00,30.5,17.9,29.68,NW,311,5.0,0.0,59,0.00,,,0.01,WeatherTracker,2013-03-22 12:40:00,
2013-03-22 08:50:00,30.9,17.9,29.68,NNE,19,3.0,0.0,58,0.00,,,0.01,WeatherTracker,2013-03-22 12:50:00,
2013-03-22 09:00:00,31.2,18.2,29.68,NW,325,8.0,0.0,58,0.00,,,0.01,WeatherTracker,2013-03-22 13:00:00,
2013-03-22 09:10:00,31.7,17.8,29.68,NNE,22,2.0,0.0,56,0.00,,,0.01,WeatherTracker,2013-03-22 13:10:00,
2013-03-22 09:15:00,31.9,18.4,29.68,NW,314,4.0,0.0,57,0.00,,,0.01,WeatherTracker,2013-03-22 13:15:00,
2013-03-22 09:20:00,32.2,18.3,29.68,NW,321,3.0,0.0,56,0.00,,,0.01,WeatherTracker,2013-03-22 13:20:00,
2013-03-22 09:25:00,32.5,18.6,29.68,NW,311,1.0,0.0,56,0.00,,,0.01,WeatherTracker,2013-03-22 13:25:00,
2013-03-22 09:30:00,32.9,18.9,29.68,NNE,13,4.0,0.0,56,0.00,,,0.01,WeatherTracker,2013-03-22 13:30:00,
2013-03-22 09:40:00,33.9,19.5,29.68,NW,322,1.0,0.0,55,0.00,,,0.01,WeatherTracker,2013-03-22 13:40:00,
2013-03-22 09:45:00,33.9,19.0,29.68,NNW,329,4.0,0.0,54,0.00,,,0.01,WeatherTracker,2013-03-22 13:45:00,
2013-03-22 09:55:00,34.5,19.6,29.68,NW,317,4.0,0.0,54,0.00,,,0.01,WeatherTracker,2013-03-22 13:55:00,
2013-03-22 10:00:00,34.6,19.2,29.69,NE,36,1.0,0.0,53,0.00,,,0.01,WeatherTracker,2013-03-22 14:00:00,
2013-03-22 10:05:00,34.8,19.9,29.69,NNE,20,1.0,0.0,54,0.00,,,0.01,WeatherTracker,2013-03-22 14:05:00,
2013-03-22 10:10:00,35.1,19.3,29.68,NE,49,0.0,0.0,52,0.00,,,0.01,WeatherTracker,2013-03-22 14:10:00,
2013-03-22 10:15:00,35.5,20.1,29.68,NNW,327,5.0,0.0,53,0.00,,,0.01,WeatherTracker,2013-03-22 14:15:00,
2013-03-22 10:25:00,35.5,18.7,29.68,WNW,288,3.0,0.0,50,0.00,,,0.01,WeatherTracker,2013-03-22 14:25:00,
2013-03-22 10:35:00,35.7,18.9,29.68,ENE,59,5.0,0.0,50,0.00,,,0.01,WeatherTracker,2013-03-22 14:35:00,
2013-03-22 10:40:00,35.7,18.9,29.69,NNW,346,5.0,0.0,50,0.00,,,0.01,WeatherTracker,2013-03-22 14:40:00,
2013-03-22 10:50:00,36.0,18.2,29.69,North,360,3.0,0.0,48,0.00,,,0.01,WeatherTracker,2013-03-22 14:50:00,
2013-03-22 10:55:00,35.9,17.2,29.69,North,355,6.0,0.0,46,0.00,,,0.01,WeatherTracker,2013-03-22 14:55:00,
2013-03-22 11:00:00,36.3,18.5,29.69,WNW,301,6.0,0.0,48,0.00,,,0.01,WeatherTracker,2013-03-22 15:00:00,
2013-03-22 11:10:00,36.2,16.9,29.69,NNW,340,1.0,0.0,45,0.00,,,0.01,WeatherTracker,2013-03-22 15:10:00,
2013-03-22 11:20:00,36.7,17.9,29.69,WSW,252,3.0,0.0,46,0.00,,,0.01,WeatherTracker,2013-03-22 15:20:00,
2013-03-22 11:25:00,36.8,18.0,29.69,North,355,3.0,0.0,46,0.00,,,0.01,WeatherTracker,2013-03-22 15:25:00,
2013-03-22 11:35:00,37.3,18.4,29.68,NNW,329,3.0,0.0,46,0.00,,,0.01,WeatherTracker,2013-03-22 15:35:00,
2013-03-22 11:40:00,37.5,18.1,29.69,WNW,286,3.0,0.0,45,0.00,,,0.01,WeatherTracker,2013-03-22 15:40:00,
2013-03-22 11:50:00,37.9,18.0,29.68,ENE,71,3.0,0.0,44,0.01,,,0.02,WeatherTracker,2013-03-22 15:50:00,
2013-03-22 11:55:00,38.4,18.9,29.68,North,355,3.0,0.0,45,0.01,,,0.02,WeatherTracker,2013-03-22 15:55:00,
2013-03-22 12:05:00,38.5,18.5,29.68,North,350,8.0,0.0,44,0.01,,,0.02,WeatherTracker,2013-03-22 16:05:00,
2013-03-22 12:10:00,38.4,17.9,29.67,NW,312,9.0,0.0,43,0.01,,,0.02,WeatherTracker,2013-03-22 16:10:00,
2013-03-22 12:20:00,39.2,19.7,29.68,WNW,300,6.0,0.0,45,0.01,,,0.02,WeatherTracker,2013-03-22 16:20:00,
2013-03-22 12:30:00,39.7,19.6,29.67,NW,311,6.0,0.0,44,0.02,,,0.03,WeatherTracker,2013-03-22 16:30:00,
2013-03-22 12:35:00,39.8,19.7,29.68,NNW,348,5.0,0.0,44,0.02,,,0.03,WeatherTracker,2013-03-22 16:35:00,
2013-03-22 12:40:00,39.6,19.0,29.67,NNW,335,5.0,0.0,43,0.02,,,0.03,WeatherTracker,2013-03-22 16:40:00,
2013-03-22 12:45:00,39.5,18.9,29.68,WNW,302,6.0,0.0,43,0.02,,,0.03,WeatherTracker,2013-03-22 16:45:00,
2013-03-22 12:50:00,39.8,18.6,29.68,NW,311,2.0,0.0,42,0.01,,,0.03,WeatherTracker,2013-03-22 16:50:00,
2013-03-22 13:00:00,40.1,18.9,29.67,West,265,6.0,0.0,42,0.02,,,0.04,WeatherTracker,2013-03-22 17:00:00,
2013-03-22 13:05:00,39.8,19.1,29.67,NNE,14,4.0,0.0,43,0.02,,,0.04,WeatherTracker,2013-03-22 17:05:00,
2013-03-22 13:10:00,39.5,18.3,29.67,NNW,338,6.0,0.0,42,0.02,,,0.04,WeatherTracker,2013-03-22 17:10:00,
2013-03-22 13:15:00,39.3,19.2,29.67,North,360,2.0,0.0,44,0.02,,,0.04,WeatherTracker,2013-03-22 17:15:00,
2013-03-22 13:25:00,39.4,18.8,29.67,WNW,283,9.0,0.0,43,0.01,,,0.04,WeatherTracker,2013-03-22 17:25:00,
2013-03-22 13:30:00,39.7,20.1,29.67,North,5,5.0,0.0,45,0.01,,,0.04,WeatherTracker,2013-03-22 17:30:00,
2013-03-22 13:35:00,39.9,19.8,29.67,WNW,291,8.0,0.0,44,0.01,,,0.04,WeatherTracker,2013-03-22 17:35:00,
2013-03-22 13:40:00,39.8,19.1,29.67,NNW,330,1.0,0.0,43,0.02,,,0.05,WeatherTracker,2013-03-22 17:40:00,
2013-03-22 13:45:00,39.7,19.6,29.67,NNE,30,3.0,0.0,44,0.02,,,0.05,WeatherTracker,2013-03-22 17:45:00,
2013-03-22 13:50:00,39.5,19.4,29.67,NW,309,4.0,0.0,44,0.02,,,0.05,WeatherTracker,2013-03-22 17:50:00,
2013-03-22 13:55:00,39.3,18.7,29.67,NNW,327,7.0,0.0,43,0.01,,,0.05,WeatherTracker,2013-03-22 17:55:00,
2013-03-22 14:05:00,38.8,19.3,29.67,North,360,3.0,0.0,45,0.01,,,0.05,WeatherTracker,2013-03-22 18:05:00,
2013-03-22 14:10:00,38.6,19.6,29.67,WNW,288,1.0,0.0,46,0.01,,,0.05,WeatherTracker,2013-03-22 18:10:00,
2013-03-22 14:15:00,38.5,21.0,29.67,West,267,4.0,0.0,49,0.01,,,0.05,WeatherTracker,2013-03-22 18:15:00,
2013-03-22 14:25:00,38.4,20.4,29.66,WNW,295,2.0,0.0,48,0.01,,,0.05,WeatherTracker,2013-03-22 18:25:00,
2013-03-22 14:35:00,38.2,20.3,29.66,NW,306,3.0,0.0,48,0.01,,,0.05,WeatherTracker,2013-03-22 18:35:00,
2013-03-22 14:45:00,38.4,21.4,29.66,North,351,2.0,0.0,50,0.00,,,0.05,WeatherTracker,2013-03-22 18:45:00,
2013-03-22 14:50:00,38.6,21.1,29.66,WNW,294,10.0,0.0,49,0.00,,,0.05,WeatherTracker,2013-03-22 18:50:00,
2013-03-22 15:00:00,39.1,21.6,29.65,NNW,336,5.0,0.0,49,0.00,,,0.05,WeatherTracker,2013-03-22 19:00:00,
2013-03-22 15:05:00,39.3,20.8,29.66,NW,323,4.0,0.0,47,0.00,,,0.05,WeatherTracker,2013-03-22 19:05:00,
2013-03-22 15:10:00,39.5,19.4,29.65,NW,321,2.0,0.0,44,0.00,,,0.05,WeatherTracker,2013-03-22 19:10:00,
2013-03-22 15:15:00,39.6,18.4,29.65,WNW,285,7.0,0.0,42,0.00,,,0.05,WeatherTracker,2013-03-22 19:15:00,
2013-03-22 15:25:00,40.7,18.3,29.65,ENE,76,5.0,0.0,40,0.00,,,0.05,WeatherTracker,2013-03-22 19:25:00,
2013-03-22 15:30:00,40.9,17.9,29.65,WNW,302,7.0,0.0,39,0.00,,,0.05,WeatherTracker,2013-03-22 19:30:00,
2013-03-22 15:35:00,40.7,17.7,29.65,NNW,340,5.0,0.0,39,0.00,,,0.05,WeatherTracker,2013-03-22 19:35:00,
2013-03-22 15:45:00,40.1,18.3,29.65,North,5,5.0,0.0,41,0.00,,,0.05,WeatherTracker,2013-03-22 19:45:00,
2013-03-22 15:50:00,40.1,17.7,29.65,North,355,5.0,0.0,40,0.00,,,0.05,WeatherTracker,2013-03-22 19:50:00,
2013-03-22 16:00:00,39.5,19.4,29.65,NW,326,2.0,0.0,44,0.00,,,0.05,WeatherTracker,2013-03-22 20:00:00,
2013-03-22 16:10:00,39.6,19.5,29.66,North,355,4.0,0.0,44,0.00,,,0.05,WeatherTracker,2013-03-22 20:10:00,
2013-03-22 16:15:00,39.2,19.1,29.66,NNW,341,4.0,0.0,44,0.00,,,0.05,WeatherTracker,2013-03-22 20:15:00,
2013-03-22 16:25:00,39.1,19.6,29.66,WNW,289,3.0,0.0,45,0.00,,,0.05,WeatherTracker,2013-03-22 20:25:00,
2013-03-22 16:30:00,39.0,20.0,29.66,NW,320,8.0,0.0,46,0.00,,,0.05,WeatherTracker,2013-03-22 20:30:00,
2013-03-22 16:40:00,38.6,19.6,29.66,NW,317,3.0,0.0,46,0.00,,,0.05,WeatherTracker,2013-03-22 20:40:00,
2013-03-22 16:50:00,38.5,20.0,29.66,North,349,6.0,0.0,47,0.00,,,0.05,WeatherTracker,2013-03-22 20:50:00,
2013-03-22 16:55:00,38.4,20.9,29.67,WNW,284,19.0,0.0,49,0.00,,,0.05,WeatherTracker,2013-03-22 20:55:00,
2013-03-22 17:05:00,38.0,21.5,29.67,NNW,336,4.0,0.0,51,0.00,,,0.05,WeatherTracker,2013-03-22 21:05:00,
2013-03-22 17:10:00,37.9,21.4,29.67,WNW,292,4.0,0.0,51,0.00,,,0.05,WeatherTracker,2013-03-22 21:10:00,
2013-03-22 17:15:00,37.9,21.4,29.67,NNE,23,8.0,0.0,51,0.00,,,0.05,WeatherTracker,2013-03-22 21:15:00,
2013-03-22 17:20:00,37.9,21.4,29.67,NNW,337,5.0,0.0,51,0.00,,,0.05,WeatherTracker,2013-03-22 21:20:00,
2013-03-22 17:30:00,37.8,21.8,29.67,NW,323,2.0,0.0,52,0.00,,,0.05,WeatherTracker,2013-03-22 21:30:00,
2013-03-22 17:40:00,37.8,22.7,29.68,NNW,331,7.0,0.0,54,0.00,,,0.05,WeatherTracker,2013-03-22 21:40:00,
2013-03-22 17:45:00,38.1,22.5,29.68,WNW,288,6.0,0.0,53,0.00,,,0.05,WeatherTracker,2013-03-22 21:45:00,
2013-03-22 17:50:00,38.2,22.6,29.68,NW,311,5.0,0.0,53,0.00,,,0.05,WeatherTracker,2013-03-22 21:50:00,
2013-03-22 18:00:00,37.8,21.3,29.68,NW,316,3.0,0.0,51,0.00,,,0.05,WeatherTracker,2013-03-22 22:00:00,
2013-03-22 18:05:00,37.7,21.7,29.68,WNW,299,3.0,0.0,52,0.00,,,0.05,WeatherTracker,2013-03-22 22:05:00,
2013-03-22 18:10:00,37.4,20.9,29.68,WNW,300,4.0,0.0,51,0.00,,,0.05,WeatherTracker,2013-03-22 22:10:00,
2013-03-22 18:20:00,37.3,20.9,29.69,NW,311,1.0,0.0,51,0.00,,,0.05,WeatherTracker,2013-03-22 22:20:00,
2013-03-22 18:25:00,37.2,20.8,29.69,WNW,286,3.0,0.0,51,0.00,,,0.05,WeatherTracker,2013-03-22 22:25:00,
2013-03-22 18:30:00,37.2,21.2,29.69,WNW,282,4.0,0.0,52,0.00,,,0.05,WeatherTracker,2013-03-22 22:30:00,
2013-03-22 18:35:00,37.0,21.0,29.69,NNW,344,5.0,0.0,52,0.00,,,0.05,WeatherTracker,2013-03-22 22:35:00,
2013-03-22 18:40:00,36.9,20.9,29.69,NNW,335,10.0,0.0,52,0.00,,,0.05,WeatherTracker,2013-03-22 22:40:00,
2013-03-22 18:50:00,36.6,21.5,29.70,NNW,329,2.0,0.0,54,0.00,,,0.05,WeatherTracker,2013-03-22 22:50:00,
2013-03-22 18:55:00,36.5,21.5,29.70,North,360,7.0,0.0,54,0.00,,,0.05,WeatherTracker,2013-03-22 22:55:00,
2013-03-22 19:05:00,36.2,21.6,29.71,NNW,331,3.0,0.0,55,0.00,,,0.05,WeatherTracker,2013-03-22 23:05:00,
2013-03-22 19:10:00,36.1,21.9,29.71,NW,309,3.0,0.0,56,0.00,,,0.05,WeatherTracker,2013-03-22 23:10:00,
2013-03-22 19:15:00,36.0,22.3,29.71,NE,39,3.0,0.0,57,0.00,,,0.05,WeatherTracker,2013-03-22 23:15:00,
2013-03-22 19:20:00,35.9,22.6,29.71,West,276,6.0,0.0,58,0.00,,,0.05,WeatherTracker,2013-03-22 23:20:00,
2013-03-22 19:30:00,35.7,22.8,29.71,WNW,298,3.0,0.0,59,0.00,,,0.05,WeatherTracker,2013-03-22 23:30:00,
2013-03-22 19:35:00,35.5,23.0,29.72,NW,307,1.0,0.0,60,0.00,,,0.05,WeatherTracker,2013-03-22 23:35:00,
2013-03-22 19:40:00,35.5,23.0,29.71,NW,315,7.0,0.0,60,0.00,,,0.05,WeatherTracker,2013-03-22 23:40:00,
2013-03-22 19:45:00,35.4,23.3,29.72,NNW,348,2.0,0.0,61,0.00,,,0.05,WeatherTracker,2013-03-22 23:45:00,
2013-03-22 19:55:00,35.2,23.9,29.72,NW,323,7.0,0.0,63,0.00,,,0.05,WeatherTracker,2013-03-22 23:55:00,
2013-03-22 20:00:00,35.2,24.3,29.72,North,360,6.0,0.0,64,0.00,,,0.05,WeatherTracker,2013-03-23 00:00:00,
2013-03-22 20:10:00,35.0,24.1,29.73,West,273,3.0,0.0,64,0.00,,,0.05,WeatherTracker,2013-03-23 00:10:00,
2013-03-22 20:15:00,35.0,24.1,29.73,NW,324,5.0,0.0,64,0.00,,,0.05,WeatherTracker,2013-03-23 00:15:00,
2013-03-22 20:20:00,34.9,24.0,29.73,North,349,3.0,0.0,64,0.00,,,0.05,WeatherTracker,2013-03-23 00:20:00,
2013-03-22 20:25:00,34.9,24.0,29.73,NNW,339,2.0,0.0,64,0.00,,,0.05,WeatherTracker,2013-03-23 00:25:00,
2013-03-22 20:30:00,34.8,23.9,29.73,NNW,333,7.0,0.0,64,0.00,,,0.05,WeatherTracker,2013-03-23 00:30:00,
2013-03-22 20:40:00,34.6,22.6,29.74,NW,317,4.0,0.0,61,0.00,,,0.05,WeatherTracker,2013-03-23 00:40:00,
2013-03-22 20:50:00,34.6,22.2,29.74,NW,324,0.0,0.0,60,0.00,,,0.05,WeatherTracker,2013-03-23 00:50:00,
2013-03-22 20:55:00,34.5,22.1,29.74,North,349,2.0,0.0,60,0.00,,,0.05,WeatherTracker,2013-03-23 00:55:00,
2013-03-22 21:00:00,34.4,22.4,29.74,NW,312,2.0,0.0,61,0.00,,,0.05,WeatherTracker,2013-03-23 01:00:00,
2013-03-22 21:10:00,34.1,22.1,29.74,NNW,336,2.0,0.0,61,0.00,,,0.05,WeatherTracker,2013-03-23 01:10:00,
2013-03-22 21:20:00,33.9,21.9,29.74,NNW,332,4.0,0.0,61,0.00,,,0.05,WeatherTracker,2013-03-23 01:20:00,
2013-03-22 21:30:00,33.7,21.7,29.74,NW,311,4.0,0.0,61,0.00,,,0.05,WeatherTracker,2013-03-23 01:30:00,
2013-03-22 21:40:00,33.5,21.5,29.75,NW,315,5.0,0.0,61,0.00,,,0.05,WeatherTracker,2013-03-23 01:40:00,
2013-03-22 21:45:00,33.4,21.8,29.74,North,355,2.0,0.0,62,0.00,,,0.05,WeatherTracker,2013-03-23 01:45:00,
2013-03-22 21:50:00,33.3,21.7,29.75,NNE,12,0.0,0.0,62,0.00,,,0.05,WeatherTracker,2013-03-23 01:50:00,
2013-03-22 21:55:00,33.1,21.5,29.75,NW,321,3.0,0.0,62,0.00,,,0.05,WeatherTracker,2013-03-23 01:55:00,
2013-03-22 22:05:00,32.9,21.7,29.75,North,355,2.0,0.0,63,0.00,,,0.05,WeatherTracker,2013-03-23 02:05:00,
2013-03-22 22:10:00,32.8,21.6,29.75,North,5,0.0,0.0,63,0.00,,,0.05,WeatherTracker,2013-03-23 02:10:00,
2013-03-22 22:15:00,32.6,21.4,29.75,NNW,348,1.0,0.0,63,0.00,,,0.05,WeatherTracker,2013-03-23 02:15:00,
2013-03-22 22:20:00,32.6,21.4,29.76,NNE,16,1.0,0.0,63,0.00,,,0.05,WeatherTracker,2013-03-23 02:20:00,
2013-03-22 22:30:00,32.4,21.6,29.76,NNW,330,1.0,0.0,64,0.00,,,0.05,WeatherTracker,2013-03-23 02:30:00,
2013-03-22 22:35:00,32.2,21.4,29.75,North,360,3.0,0.0,64,0.00,,,0.05,WeatherTracker,2013-03-23 02:35:00,
2013-03-22 22:45:00,32.0,21.2,29.75,NW,323,1.0,0.0,64,0.00,,,0.05,WeatherTracker,2013-03-23 02:45:00,
2013-03-22 22:55:00,32.1,21.3,29.75,WNW,294,1.0,0.0,64,0.00,,,0.05,WeatherTracker,2013-03-23 02:55:00,
2013-03-22 23:00:00,32.0,20.9,29.75,NW,323,2.0,0.0,63,0.00,,,0.05,WeatherTracker,2013-03-23 03:00:00,
2013-03-22 23:10:00,31.9,21.1,29.75,NW,323,0.0,0.0,64,0.00,,,0.05,WeatherTracker,2013-03-23 03:10:00,
2013-03-22 23:15:00,31.8,21.0,29.75,North,5,2.0,0.0,64,0.00,,,0.05,WeatherTracker,2013-03-23 03:15:00,
2013-03-22 23:20:00,31.7,20.9,29.75,NNW,338,0.0,0.0,64,0.00,,,0.05,WeatherTracker,2013-03-23 03:20:00,
2013-03-22 23:25:00,31.6,20.8,29.75,WNW,286,6.0,0.0,64,0.00,,,0.05,WeatherTracker,2013-03-23 03:25:00,
2013-03-22 23:35:00,31.5,20.7,29.75,NNE,20,3.0,0.0,64,0.00,,,0.05,WeatherTracker,2013-03-23 03:35:00,
2013-03-22 23:45:00,31.5,21.1,29.76,WNW,303,1.0,0.0,65,0.00,,,0.05,WeatherTracker,2013-03-23 03:45:00,
2013-03-22 23:55:00,31.4,21.0,29.75,NNE,32,4.0,0.0,65,0.00,,,0.05,WeatherTracker,2013-03-23 03:55:00,